OERK/RUH METAR and TAF weather

Enter ICAO airport designator
Station Type Date Time Source
OERK METAR 2024/02/26 16:00 UTC NOAA

OERK 261600Z 35006KT CAVOK 19/00 Q1015 NOSIG


Station Type Date Time Source
OERK Decoded METAR 2024/02/26 16:00 UTC NOAA

King Khaled International Airport, Saudi Arabia (OERK) 24-56N 046-43E 612M
Feb 26, 2024 - 11:00 AM EST / 2024.02.26 1600 UTC
Wind: from the N (350 degrees) at 7 MPH (6 KT):0
Visibility: greater than 7 mile(s):0
Temperature: 66 F (19 C)
Dew Point: 32 F (0 C)
Relative Humidity: 27%
Pressure (altimeter): 29.97 in. Hg (1015 hPa)
ob: OERK 261600Z 35006KT CAVOK 19/00 Q1015 NOSIG
cycle: 16

Station Type Date Time Source
OERK TAF 2024/02/26 12:33 UTC NOAA